createdAt,value
2022-10-11T00:00:12.182Z,6.13
2022-10-11T00:02:38.897Z,5.93
2022-10-11T00:05:06.440Z,7.20
2022-10-11T00:07:34.581Z,6.17
2022-10-11T00:10:06.858Z,5.80
2022-10-11T00:12:34.179Z,6.57
2022-10-11T00:15:01.098Z,7.20
2022-10-11T00:17:27.813Z,5.37
2022-10-11T00:19:54.494Z,5.17
2022-10-11T00:22:21.273Z,5.33
2022-10-11T00:24:48.015Z,5.83
2022-10-11T00:27:14.774Z,5.77
2022-10-11T00:29:41.455Z,5.57
2022-10-11T00:32:08.189Z,7.00
2022-10-11T00:34:34.896Z,5.63
2022-10-11T00:37:01.598Z,4.67
2022-10-11T00:39:28.513Z,4.90
2022-10-11T00:41:55.475Z,5.00
2022-10-11T00:44:26.954Z,5.63
2022-10-11T00:47:04.935Z,5.57
2022-10-11T00:49:48.398Z,5.17
2022-10-11T00:52:31.404Z,7.13
2022-10-11T00:55:05.058Z,5.40
2022-10-11T00:57:39.815Z,7.17
2022-10-11T01:00:11.729Z,6.53
2022-10-11T01:02:40.122Z,6.10
2022-10-11T01:05:28.604Z,6.70
2022-10-11T01:07:58.787Z,5.27
2022-10-11T01:10:27.371Z,4.80
2022-10-11T01:13:16.544Z,5.50
2022-10-11T01:16:10.426Z,5.10
2022-10-11T01:19:10.358Z,4.90
2022-10-11T01:22:24.256Z,5.47
2022-10-11T01:25:17.512Z,6.17
2022-10-11T01:28:32.242Z,9.03
2022-10-11T01:31:13.641Z,5.10
2022-10-11T01:33:50.614Z,5.00
2022-10-11T01:36:55.695Z,6.03
2022-10-11T01:39:43.726Z,5.43
2022-10-11T01:42:14.425Z,6.30
2022-10-11T01:44:46.998Z,5.93
2022-10-11T01:47:14.047Z,5.83
2022-10-11T01:49:41.842Z,7.40
2022-10-11T01:52:10.561Z,5.53
2022-10-11T01:55:30.823Z,5.60
2022-10-11T01:58:27.386Z,5.73
2022-10-11T02:01:13.852Z,5.33
2022-10-11T02:03:54.627Z,4.90
2022-10-11T02:06:35.410Z,4.73
2022-10-11T02:09:20.352Z,5.20
2022-10-11T02:11:47.124Z,6.10
2022-10-11T02:14:24.714Z,5.37
2022-10-11T02:17:10.560Z,6.17
2022-10-11T02:19:44.275Z,5.37
2022-10-11T02:22:21.933Z,5.37
2022-10-11T02:24:55.518Z,7.57
2022-10-11T02:27:26.741Z,5.93
2022-10-11T02:29:56.697Z,4.63
2022-10-11T02:32:25.982Z,5.30
2022-10-11T02:34:56.229Z,4.80
2022-10-11T02:37:47.511Z,8.83
2022-10-11T02:40:29.280Z,5.03
2022-10-11T02:43:31.477Z,4.70
2022-10-11T02:46:01.369Z,5.10
2022-10-11T02:48:31.467Z,6.07
2022-10-11T02:50:58.965Z,5.03
2022-10-11T02:53:27.097Z,5.20
2022-10-11T02:55:55.658Z,4.70
2022-10-11T02:58:23.849Z,4.93
2022-10-11T03:00:51.010Z,4.50
2022-10-11T03:03:17.782Z,4.70
2022-10-11T03:05:44.691Z,4.80
2022-10-11T03:08:14.182Z,6.10
2022-10-11T03:10:41.678Z,4.23
2022-10-11T03:13:09.009Z,3.87
2022-10-11T03:15:35.826Z,5.13
2022-10-11T03:18:02.691Z,4.60
2022-10-11T03:20:29.398Z,5.27
2022-10-11T03:22:56.233Z,5.87
2022-10-11T03:25:22.962Z,5.10
2022-10-11T03:27:49.840Z,4.80
2022-10-11T03:30:18.449Z,4.73
2022-10-11T03:32:45.633Z,4.83
2022-10-11T03:35:12.457Z,4.77
2022-10-11T03:37:39.178Z,4.73
2022-10-11T03:40:08.634Z,4.77
2022-10-11T03:42:36.701Z,5.57
2022-10-11T03:45:08.809Z,4.53
2022-10-11T03:47:40.023Z,8.30
2022-10-11T03:50:09.180Z,4.67
2022-10-11T03:52:36.022Z,4.73
2022-10-11T03:55:03.547Z,5.27
2022-10-11T03:57:30.650Z,4.33
2022-10-11T03:59:57.715Z,4.70
2022-10-11T04:02:24.690Z,4.20
2022-10-11T04:04:51.403Z,5.43
2022-10-11T04:07:18.195Z,4.73
2022-10-11T04:09:44.906Z,5.07
2022-10-11T04:12:11.635Z,7.60
2022-10-11T04:14:38.329Z,4.53
2022-10-11T04:17:05.013Z,6.50
2022-10-11T04:19:31.786Z,5.27
2022-10-11T04:21:58.488Z,4.97
2022-10-11T04:24:25.211Z,5.00
2022-10-11T04:26:51.957Z,5.00
2022-10-11T04:29:18.674Z,4.73
2022-10-11T04:31:45.413Z,4.40
2022-10-11T04:34:12.251Z,5.07
2022-10-11T04:36:39.114Z,5.23
2022-10-11T04:39:07.687Z,4.33
2022-10-11T04:41:35.010Z,4.73
2022-10-11T04:44:02.687Z,5.20
2022-10-11T04:46:29.537Z,4.07
2022-10-11T04:48:56.330Z,4.83
2022-10-11T04:51:23.335Z,4.27
2022-10-11T04:53:50.126Z,4.40
2022-10-11T04:56:18.476Z,4.80
2022-10-11T04:58:48.112Z,4.70
2022-10-11T05:01:15.445Z,4.50
2022-10-11T05:03:42.193Z,5.20
2022-10-11T05:06:09.288Z,5.00
2022-10-11T05:08:36.784Z,4.30
2022-10-11T05:11:15.655Z,5.20
2022-10-11T05:13:44.523Z,4.93
2022-10-11T05:16:12.704Z,4.90
2022-10-11T05:18:40.302Z,6.30
2022-10-11T05:21:21.565Z,4.17
2022-10-11T05:23:51.539Z,4.93
2022-10-11T05:26:20.124Z,5.00
2022-10-11T05:28:47.989Z,6.23
2022-10-11T05:31:15.789Z,5.83
2022-10-11T05:33:42.569Z,5.77
2022-10-11T05:36:09.817Z,5.70
2022-10-11T05:38:38.098Z,6.67
2022-10-11T05:41:06.251Z,7.27
2022-10-11T05:43:33.045Z,5.90
2022-10-11T05:45:59.921Z,6.17
2022-10-11T05:48:28.333Z,5.53
2022-10-11T05:51:05.007Z,6.40
2022-10-11T05:53:32.125Z,5.77
2022-10-11T05:55:59.650Z,5.17
2022-10-11T05:58:27.045Z,5.43
2022-10-11T06:00:54.612Z,6.37
2022-10-11T06:03:21.434Z,9.53
2022-10-11T06:05:49.713Z,8.70
2022-10-11T06:08:18.002Z,6.90
2022-10-11T06:10:44.770Z,9.40
2022-10-11T06:13:11.634Z,7.77
2022-10-11T06:15:40.103Z,6.70
2022-10-11T06:18:06.944Z,6.80
2022-10-11T06:20:33.820Z,7.47
2022-10-11T06:23:00.596Z,7.33
2022-10-11T06:25:27.334Z,6.67
2022-10-11T06:27:54.182Z,7.43
2022-10-11T06:30:20.989Z,7.47
2022-10-11T06:32:47.727Z,10.47
2022-10-11T06:35:14.598Z,9.43
2022-10-11T06:37:41.285Z,7.10
2022-10-11T06:40:08.575Z,7.17
2022-10-11T06:42:35.255Z,11.50
2022-10-11T06:45:02.003Z,8.83
2022-10-11T06:47:28.703Z,9.07
2022-10-11T06:49:55.402Z,6.75
2022-10-11T06:52:22.116Z,6.83
2022-10-11T06:54:48.806Z,7.17
2022-10-11T06:57:15.586Z,8.10
2022-10-11T06:59:42.271Z,7.13
2022-10-11T07:02:10.059Z,7.53
2022-10-11T07:04:36.893Z,7.97
2022-10-11T07:07:03.573Z,7.83
2022-10-11T07:09:30.820Z,8.03
2022-10-11T07:11:57.516Z,6.17
2022-10-11T07:14:24.237Z,7.43
2022-10-11T07:16:50.955Z,6.87
2022-10-11T07:19:17.687Z,6.87
2022-10-11T07:21:44.379Z,7.40
2022-10-11T07:24:11.169Z,8.43
2022-10-11T07:26:38.579Z,5.97
2022-10-11T07:29:08.813Z,6.33
2022-10-11T07:31:39.633Z,7.23
2022-10-11T07:34:06.398Z,5.73
2022-10-11T07:36:33.150Z,6.03
2022-10-11T07:38:59.899Z,5.70
2022-10-11T07:41:26.856Z,5.90
2022-10-11T07:43:54.834Z,5.73
2022-10-11T07:46:21.592Z,6.00
2022-10-11T07:48:50.171Z,5.57
2022-10-11T07:51:21.654Z,5.63
2022-10-11T07:53:52.130Z,5.83
2022-10-11T07:56:22.643Z,7.70
2022-10-11T07:59:03.412Z,5.33
2022-10-11T08:01:31.601Z,5.97
2022-10-11T08:03:59.048Z,5.07
2022-10-11T08:06:32.191Z,4.60
2022-10-11T08:09:01.294Z,4.90
2022-10-11T08:11:35.826Z,4.43
2022-10-11T08:14:06.106Z,4.30
2022-10-11T08:16:32.876Z,4.60
2022-10-11T08:19:00.847Z,3.90
2022-10-11T08:21:27.617Z,5.37
2022-10-11T08:23:54.711Z,4.47
2022-10-11T08:26:22.137Z,4.78
2022-10-11T08:28:48.938Z,3.90
2022-10-11T08:31:16.686Z,4.27
2022-10-11T08:33:44.243Z,4.50
2022-10-11T08:36:11.539Z,4.67
2022-10-11T08:38:39.488Z,4.10
2022-10-11T08:41:52.397Z,4.43
2022-10-11T08:45:05.319Z,5.23
2022-10-11T08:47:33.603Z,4.33
2022-10-11T08:50:01.432Z,4.73
2022-10-11T08:52:44.743Z,3.67
2022-10-11T08:55:41.811Z,4.53
2022-10-11T08:58:19.379Z,4.20
2022-10-11T09:00:49.900Z,3.63
2022-10-11T09:03:28.483Z,3.90
2022-10-11T09:06:37.071Z,4.63
2022-10-11T09:09:28.295Z,5.60
2022-10-11T09:12:01.018Z,4.23
2022-10-11T09:14:36.831Z,4.47
2022-10-11T09:17:28.693Z,5.07
2022-10-11T09:20:29.195Z,4.97
2022-10-11T09:23:21.618Z,5.30
2022-10-11T09:26:19.356Z,4.80
2022-10-11T09:29:15.913Z,5.77
2022-10-11T09:31:52.277Z,5.03
2022-10-11T09:34:23.801Z,4.30
2022-10-11T09:37:06.892Z,4.63
2022-10-11T09:39:37.812Z,6.60
2022-10-11T09:42:10.911Z,4.47
2022-10-11T09:44:49.003Z,7.37
2022-10-11T09:47:24.416Z,3.60
2022-10-11T09:49:59.053Z,5.83
2022-10-11T09:52:26.453Z,3.83
2022-10-11T09:55:00.471Z,4.13
2022-10-11T09:57:35.692Z,5.03
2022-10-11T10:00:25.669Z,5.07
2022-10-11T10:02:58.915Z,3.87
2022-10-11T10:05:32.614Z,4.83
2022-10-11T10:08:11.375Z,4.00
2022-10-11T10:10:55.749Z,3.70
2022-10-11T10:13:51.270Z,3.93
2022-10-11T10:16:29.386Z,3.80
2022-10-11T10:19:06.512Z,4.70
2022-10-11T10:21:47.031Z,3.73
2022-10-11T10:24:39.049Z,5.25
2022-10-11T10:27:36.233Z,4.33
2022-10-11T10:30:08.979Z,4.50
2022-10-11T10:32:48.668Z,3.97
2022-10-11T10:35:25.096Z,3.90
2022-10-11T10:38:13.935Z,3.93
2022-10-11T10:40:55.379Z,3.70
2022-10-11T10:43:26.228Z,3.73
2022-10-11T10:46:59.187Z,3.53
2022-10-11T10:49:55.469Z,6.00
2022-10-11T10:52:53.652Z,3.43
2022-10-11T10:55:33.818Z,3.83
2022-10-11T10:59:01.114Z,3.40
2022-10-11T11:01:32.568Z,3.43
2022-10-11T11:04:33.406Z,3.63
2022-10-11T11:07:36.718Z,4.43
2022-10-11T11:10:05.772Z,5.03
2022-10-11T11:13:02.990Z,6.93
2022-10-11T11:15:38.081Z,4.23
2022-10-11T11:18:42.866Z,6.87
2022-10-11T11:21:26.646Z,5.63
2022-10-11T11:24:26.667Z,5.37
2022-10-11T11:27:33.881Z,5.63
2022-10-11T11:30:17.050Z,8.90
2022-10-11T11:33:15.319Z,5.17
2022-10-11T11:35:49.858Z,4.27
2022-10-11T11:38:50.924Z,3.90
2022-10-11T11:41:25.854Z,5.77
2022-10-11T11:44:27.474Z,4.80
2022-10-11T11:47:06.521Z,3.67
2022-10-11T11:49:47.864Z,3.97
2022-10-11T11:52:28.290Z,3.40
2022-10-11T11:55:18.265Z,4.43
2022-10-11T11:58:24.725Z,7.77
2022-10-11T12:01:21.963Z,3.43
2022-10-11T12:03:55.441Z,5.23
2022-10-11T12:07:04.189Z,4.33
2022-10-11T12:09:30.586Z,6.50
2022-10-11T12:12:00.690Z,4.90
2022-10-11T12:14:33.281Z,3.57
2022-10-11T12:17:17.402Z,3.80
2022-10-11T12:20:23.847Z,3.60
2022-10-11T12:22:52.668Z,3.63
2022-10-11T12:25:22.399Z,3.80
2022-10-11T12:27:56.263Z,3.83
2022-10-11T12:30:44.486Z,3.77
2022-10-11T12:33:21.241Z,8.63
2022-10-11T12:36:21.645Z,4.50
2022-10-11T12:39:42.351Z,3.80
2022-10-11T12:42:29.143Z,6.23
2022-10-11T12:45:10.821Z,8.67
2022-10-11T12:47:52.419Z,3.97
2022-10-11T12:50:31.012Z,3.80
2022-10-11T12:53:43.691Z,4.10
2022-10-11T12:56:54.526Z,4.13
2022-10-11T12:59:25.977Z,4.30
2022-10-11T13:01:58.641Z,3.97
2022-10-11T13:04:32.622Z,3.70
2022-10-11T13:07:07.066Z,4.67
2022-10-11T13:09:43.172Z,3.63
2022-10-11T13:12:23.174Z,3.70
2022-10-11T13:15:15.665Z,3.60
2022-10-11T13:17:43.348Z,3.60
2022-10-11T13:20:15.495Z,3.30
2022-10-11T13:22:43.364Z,3.73
2022-10-11T13:25:18.926Z,3.50
2022-10-11T13:27:48.376Z,4.53
2022-10-11T13:30:34.907Z,4.87
2022-10-11T13:33:06.393Z,4.93
2022-10-11T13:35:37.118Z,3.77
2022-10-11T13:38:08.070Z,3.13
2022-10-11T13:40:36.375Z,3.70
2022-10-11T13:43:05.768Z,4.47
2022-10-11T13:45:35.727Z,3.57
2022-10-11T13:48:03.087Z,3.27
2022-10-11T13:50:33.416Z,3.93
2022-10-11T13:53:12.320Z,3.80
2022-10-11T13:55:41.767Z,5.17
2022-10-11T13:58:29.926Z,5.60
2022-10-11T14:01:04.910Z,3.27
2022-10-11T14:03:44.400Z,3.93
2022-10-11T14:06:11.284Z,3.63
2022-10-11T14:08:46.511Z,3.50
2022-10-11T14:11:15.174Z,3.53
2022-10-11T14:13:49.626Z,3.93
2022-10-11T14:16:16.250Z,4.33
2022-10-11T14:18:49.406Z,3.30
2022-10-11T14:21:34.524Z,4.10
2022-10-11T14:24:06.798Z,3.40
2022-10-11T14:26:38.623Z,3.40
2022-10-11T14:29:18.742Z,3.17
2022-10-11T14:31:46.001Z,3.13
2022-10-11T14:34:23.414Z,2.70
2022-10-11T14:36:51.281Z,3.10
2022-10-11T14:39:22.389Z,3.37
2022-10-11T14:41:51.053Z,3.80
2022-10-11T14:44:19.780Z,3.07
2022-10-11T14:46:48.887Z,3.23
2022-10-11T14:49:25.428Z,3.17
2022-10-11T14:51:54.285Z,3.13
2022-10-11T14:54:23.844Z,2.60
2022-10-11T14:56:53.656Z,2.77
2022-10-11T14:59:25.423Z,2.20
2022-10-11T15:01:53.965Z,2.80
2022-10-11T15:04:22.588Z,2.73
2022-10-11T15:06:51.125Z,2.33
2022-10-11T15:09:20.810Z,2.70
2022-10-11T15:11:50.346Z,2.70
2022-10-11T15:14:17.859Z,2.50
2022-10-11T15:16:44.566Z,2.80
2022-10-11T15:19:19.316Z,2.50
2022-10-11T15:21:46.738Z,2.90
2022-10-11T15:24:13.767Z,2.80
2022-10-11T15:26:41.016Z,3.10
2022-10-11T15:29:12.368Z,2.67
2022-10-11T15:31:39.628Z,2.80
2022-10-11T15:34:06.385Z,2.53
2022-10-11T15:36:33.121Z,2.60
2022-10-11T15:39:01.536Z,2.93
2022-10-11T15:41:28.386Z,3.20
2022-10-11T15:43:55.178Z,3.20
2022-10-11T15:46:23.225Z,3.30
2022-10-11T15:48:51.705Z,3.27
2022-10-11T15:51:18.703Z,3.40
2022-10-11T15:53:46.740Z,3.90
2022-10-11T15:56:17.057Z,3.77
2022-10-11T15:58:44.656Z,3.63
2022-10-11T16:01:19.601Z,3.50
2022-10-11T16:03:48.971Z,3.23
2022-10-11T16:06:16.850Z,4.53
2022-10-11T16:08:43.607Z,4.00
2022-10-11T16:11:12.612Z,3.40
2022-10-11T16:13:39.675Z,3.87
2022-10-11T16:16:10.092Z,4.00
2022-10-11T16:18:37.604Z,4.13
2022-10-11T16:21:15.356Z,4.33
2022-10-11T16:23:42.155Z,4.10
2022-10-11T16:26:13.868Z,5.83
2022-10-11T16:28:41.829Z,6.23
2022-10-11T16:31:13.007Z,6.90
2022-10-11T16:33:45.510Z,4.40
2022-10-11T16:36:40.599Z,5.27
2022-10-11T16:39:12.899Z,9.03
2022-10-11T16:41:40.214Z,4.07
2022-10-11T16:44:07.631Z,6.23
2022-10-11T16:46:34.794Z,5.23
2022-10-11T16:49:01.603Z,4.47
2022-10-11T16:51:28.391Z,4.60
2022-10-11T16:53:55.105Z,4.90
2022-10-11T16:56:24.010Z,4.53
2022-10-11T16:58:54.800Z,5.17
2022-10-11T17:01:22.062Z,4.50
2022-10-11T17:03:50.096Z,4.40
2022-10-11T17:06:18.250Z,6.20
2022-10-11T17:08:45.253Z,6.07
2022-10-11T17:11:12.107Z,4.50
2022-10-11T17:13:38.791Z,4.67
2022-10-11T17:16:06.285Z,5.77
2022-10-11T17:18:33.237Z,6.43
2022-10-11T17:21:07.243Z,6.03
2022-10-11T17:23:35.311Z,7.00
2022-10-11T17:26:10.090Z,6.53
2022-10-11T17:28:38.775Z,7.00
2022-10-11T17:31:07.645Z,4.90
2022-10-11T17:33:34.963Z,6.07
2022-10-11T17:36:02.395Z,5.00
2022-10-11T17:38:29.185Z,5.40
2022-10-11T17:41:08.852Z,5.10
2022-10-11T17:43:36.061Z,5.97
2022-10-11T17:46:08.777Z,6.33
2022-10-11T17:48:38.950Z,4.80
2022-10-11T17:51:15.692Z,5.07
2022-10-11T17:53:43.627Z,7.07
2022-10-11T17:56:14.394Z,6.70
2022-10-11T17:58:41.736Z,5.40
2022-10-11T18:01:16.234Z,9.43
2022-10-11T18:03:44.569Z,10.00
2022-10-11T18:06:13.483Z,9.63
2022-10-11T18:08:41.075Z,9.73
2022-10-11T18:11:18.394Z,11.97
2022-10-11T18:13:49.835Z,13.67
2022-10-11T18:16:21.011Z,9.73
2022-10-11T18:18:48.672Z,8.77
2022-10-11T18:21:16.242Z,10.70
2022-10-11T18:23:42.984Z,7.73
2022-10-11T18:26:20.089Z,8.07
2022-10-11T18:28:48.132Z,6.03
2022-10-11T18:31:20.416Z,6.27
2022-10-11T18:33:50.771Z,6.13
2022-10-11T18:36:21.978Z,6.10
2022-10-11T18:38:55.312Z,5.43
2022-10-11T18:41:25.394Z,5.67
2022-10-11T18:43:58.459Z,7.77
2022-10-11T18:46:26.529Z,5.80
2022-10-11T18:48:55.553Z,7.53
2022-10-11T18:51:29.291Z,5.70
2022-10-11T18:53:58.540Z,5.13
2022-10-11T18:56:27.364Z,4.73
2022-10-11T18:58:56.691Z,6.57
2022-10-11T19:01:31.415Z,5.53
2022-10-11T19:04:01.772Z,5.80
2022-10-11T19:06:33.067Z,8.53
2022-10-11T19:09:13.305Z,6.30
2022-10-11T19:11:41.679Z,7.70
2022-10-11T19:14:13.273Z,7.47
2022-10-11T19:16:45.189Z,6.23
2022-10-11T19:19:13.176Z,8.17
2022-10-11T19:21:40.531Z,5.60
2022-10-11T19:24:07.944Z,5.63
2022-10-11T19:26:38.633Z,5.70
2022-10-11T19:29:10.264Z,5.53
2022-10-11T19:31:42.938Z,5.70
2022-10-11T19:34:10.248Z,10.13
2022-10-11T19:36:37.178Z,8.87
2022-10-11T19:39:05.925Z,6.30
2022-10-11T19:41:33.222Z,6.50
2022-10-11T19:43:59.984Z,7.23
2022-10-11T19:46:49.772Z,4.93
2022-10-11T19:49:17.393Z,5.57
2022-10-11T19:51:44.558Z,5.53
2022-10-11T19:54:14.115Z,5.03
2022-10-11T19:56:42.442Z,7.03
2022-10-11T19:59:11.037Z,5.27
2022-10-11T20:01:38.645Z,6.90
2022-10-11T20:04:09.187Z,5.50
2022-10-11T20:06:40.202Z,8.67
2022-10-11T20:09:29.646Z,5.27
2022-10-11T20:11:55.867Z,6.43
2022-10-11T20:14:22.660Z,6.17
2022-10-11T20:16:50.349Z,5.67
2022-10-11T20:19:17.806Z,6.43
2022-10-11T20:21:45.205Z,5.80
2022-10-11T20:24:12.681Z,6.27
2022-10-11T20:26:39.920Z,7.80
2022-10-11T20:29:06.825Z,7.00
2022-10-11T20:31:38.351Z,6.80
2022-10-11T20:34:07.025Z,5.57
2022-10-11T20:36:35.730Z,5.37
2022-10-11T20:39:02.526Z,5.03
2022-10-11T20:41:39.700Z,7.43
2022-10-11T20:44:07.674Z,7.83
2022-10-11T20:46:39.026Z,9.07
2022-10-11T20:49:09.601Z,12.67
2022-10-11T20:51:39.273Z,7.40
2022-10-11T20:54:06.751Z,6.50
2022-10-11T20:56:34.924Z,8.37
2022-10-11T20:59:02.125Z,8.50
2022-10-11T21:01:39.527Z,6.60
2022-10-11T21:04:10.130Z,6.47
2022-10-11T21:06:36.880Z,6.77
2022-10-11T21:09:04.072Z,5.90
2022-10-11T21:11:33.886Z,8.47
2022-10-11T21:14:04.693Z,5.67
2022-10-11T21:16:33.409Z,6.53
2022-10-11T21:19:02.051Z,7.10
2022-10-11T21:21:30.025Z,7.30
2022-10-11T21:24:00.056Z,6.57
2022-10-11T21:26:28.355Z,6.23
2022-10-11T21:28:55.367Z,7.63
2022-10-11T21:31:23.615Z,6.07
2022-10-11T21:33:50.792Z,5.37
2022-10-11T21:36:21.059Z,5.10
2022-10-11T21:38:49.048Z,7.13
2022-10-11T21:41:22.765Z,7.37
2022-10-11T21:43:49.978Z,5.37
2022-10-11T21:46:22.716Z,5.73
2022-10-11T21:48:50.232Z,6.27
2022-10-11T21:51:29.583Z,6.90
2022-10-11T21:54:00.160Z,5.83
2022-10-11T21:56:28.422Z,5.93
2022-10-11T21:58:55.810Z,5.97
2022-10-11T22:01:23.539Z,5.77
2022-10-11T22:03:54.675Z,8.77
2022-10-11T22:06:21.446Z,6.07
2022-10-11T22:08:49.829Z,7.33
2022-10-11T22:11:17.402Z,7.03
2022-10-11T22:13:44.739Z,8.70
2022-10-11T22:16:13.660Z,10.07
2022-10-11T22:18:41.523Z,8.63
2022-10-11T22:21:15.670Z,8.20
2022-10-11T22:23:45.697Z,14.47
2022-10-11T22:26:19.517Z,7.30
2022-10-11T22:28:46.857Z,6.37
2022-10-11T22:31:16.074Z,8.53
2022-10-11T22:33:42.942Z,6.83
2022-10-11T22:36:12.229Z,7.17
2022-10-11T22:38:41.928Z,7.57
2022-10-11T22:41:09.790Z,5.87
2022-10-11T22:43:37.001Z,6.17
2022-10-11T22:46:05.171Z,7.70
2022-10-11T22:48:31.890Z,7.70
2022-10-11T22:50:58.858Z,6.20
2022-10-11T22:53:25.818Z,8.47
2022-10-11T22:55:52.526Z,6.33
2022-10-11T22:58:19.276Z,6.93
2022-10-11T23:00:46.283Z,8.23
2022-10-11T23:03:15.887Z,6.87
2022-10-11T23:05:42.819Z,6.33
2022-10-11T23:08:10.386Z,7.83
2022-10-11T23:10:40.409Z,9.77
2022-10-11T23:13:07.884Z,8.53
2022-10-11T23:15:34.845Z,7.17
2022-10-11T23:18:01.537Z,9.23
2022-10-11T23:20:28.231Z,12.77
2022-10-11T23:22:54.956Z,10.37
2022-10-11T23:25:21.650Z,7.10
2022-10-11T23:27:48.345Z,12.23
2022-10-11T23:30:15.406Z,6.53
2022-10-11T23:32:42.114Z,8.10
2022-10-11T23:35:09.049Z,6.07
2022-10-11T23:37:36.193Z,6.73
2022-10-11T23:40:04.416Z,6.87
2022-10-11T23:42:31.108Z,6.43
2022-10-11T23:44:57.794Z,6.10
2022-10-11T23:47:24.523Z,7.60
2022-10-11T23:49:51.744Z,6.20
2022-10-11T23:52:18.577Z,6.17
2022-10-11T23:54:45.337Z,6.30
2022-10-11T23:57:12.454Z,8.43
2022-10-11T23:59:39.159Z,7.63
